You are not logged in, Click here to log in
機場資訊:LOWW Welcome to Taiwan Airways 台灣虛擬航空
ICAO: LOWW Country: 奧地利和首都維也納東南方18公里
Latitude: 48.1158 Longitude: 16.5666
Total Arrivals: 18 Total Departures: 15
Latest Arrival: FS97 (HECA-LOWW)ALAN. LIU Latest Departure: FS85 (LOWW-LJLJ)ALAN. LIU
Scenery:
METAR : LOWW 211250Z 27003KT 220V330 CAVOK 20/13 Q1019 NOSIG

維也納國際機場VIE